Briefing drone pour Magny-cours

Rechercher une autre localisation

Conditions de vol :


Nous sommes le : Vendredi 27 janvier 2023
Il est 02:23 UTC (03:23 LT)

Lever de soleil : 06:51 UTC (07:51 LT)
Coucher de soleil : 17:08 UTC (18:08 LT)

Météo

L'essentiel des conditions de vol

VIGILANCE MÉTÉO FRANCE - Nièvre (58)
Vigilance Jaune : Neige-verglas
CARTE TEMSI
CARTES DES FRONTS
METAR de LFQG
LFQG 261800Z AUTO 04009KT 9999 OVC014 M01/M04 Q1023

Date d'émission: 26/01/2023
Heure d'émission: 18:00 UTC
Vent: 040° pour 9 KT (17 km/h)
Visibilité horizontale: > 10 km
Plafond :
- Couvert à 1400ft (427m)
Température: -1 °C
Point de rosée: -4 °C
Humidité: 80%
Pression (QNH): 1023 hPa
Prévision 24h pour Nevers (7 km)
Vent : 18° pour 3 KT (12 km/h)
Temperature Maxi: 1 °C
Temperature Min: 1 °C
Humidité : 84%
Condition : Couvert



Warning: count(): Parameter must be an array or an object that implements Countable in /homepages/6/d509196549/htdocs/droneoxygene/briefing.php on line 743
WEBCAM POUR MAGNY-COURS

Réglementation

Voler en sécurité

CARTES AERONAUTIQUE 1/500.000
CARTE AZBA (Reseau basse altitude)
CARTES VAC (LFQG)
SUP AIP




Chargement des AIP...
NOTAM (MAGNY-COURS + Terrain à proximité / FIR )




Chargement des NOTAMS...
CONTACT PREFECTURE 58
Nièvre (58) : [email protected]


Avertissement : Les données mises à disposition sont indicatives. Oxygène Drone ne pourra être tenu responsable de dégâts causés aux biens et aux personnes.